createdAt,value
2019-01-27T00:02:05.920Z,45.70
2019-01-27T00:04:37.341Z,38.13
2019-01-27T00:07:08.449Z,51.10
2019-01-27T00:09:39.334Z,42.60
2019-01-27T00:12:09.763Z,36.87
2019-01-27T00:14:40.171Z,44.53
2019-01-27T00:17:11.206Z,44.13
2019-01-27T00:19:42.882Z,50.97
2019-01-27T00:22:14.256Z,45.37
2019-01-27T00:24:44.695Z,46.17
2019-01-27T00:27:15.147Z,48.37
2019-01-27T00:29:45.622Z,45.00
2019-01-27T00:32:16.452Z,41.37
2019-01-27T00:34:47.139Z,40.30
2019-01-27T00:37:18.157Z,38.83
2019-01-27T00:39:48.867Z,41.30
2019-01-27T00:42:20.043Z,47.70
2019-01-27T00:44:50.668Z,43.50
2019-01-27T00:47:21.499Z,39.97
2019-01-27T00:49:52.455Z,49.00
2019-01-27T00:52:22.915Z,42.10
2019-01-27T00:54:53.575Z,45.93
2019-01-27T00:57:24.292Z,38.00
2019-01-27T00:59:55.567Z,40.70
2019-01-27T01:02:26.577Z,46.60
2019-01-27T01:04:57.304Z,50.27
2019-01-27T01:07:27.823Z,40.90
2019-01-27T01:09:59.087Z,43.93
2019-01-27T01:12:29.274Z,42.30
2019-01-27T01:14:59.752Z,36.77
2019-01-27T01:17:30.063Z,38.80
2019-01-27T01:20:00.907Z,45.30
2019-01-27T01:22:31.567Z,39.00
2019-01-27T01:25:02.111Z,34.67
2019-01-27T01:27:33.271Z,36.47
2019-01-27T01:30:08.008Z,35.60
2019-01-27T01:32:38.708Z,42.60
2019-01-27T01:35:10.934Z,39.73
2019-01-27T01:37:42.227Z,32.47
2019-01-27T01:40:16.270Z,32.83
2019-01-27T01:42:47.187Z,44.17
2019-01-27T01:45:23.209Z,38.70
2019-01-27T01:47:54.259Z,41.93
2019-01-27T01:50:25.247Z,37.20
2019-01-27T01:52:55.893Z,35.23
2019-01-27T01:55:26.506Z,33.77
2019-01-27T01:57:59.153Z,34.97
2019-01-27T02:00:33.339Z,33.87
2019-01-27T02:03:03.811Z,36.17
2019-01-27T02:05:34.463Z,37.10
2019-01-27T02:08:05.408Z,36.30
2019-01-27T02:10:35.848Z,32.53
2019-01-27T02:13:06.791Z,36.67
2019-01-27T02:16:06.591Z,32.90
2019-01-27T02:18:39.790Z,32.67
2019-01-27T02:21:11.286Z,35.80
2019-01-27T02:23:42.460Z,30.93
2019-01-27T02:26:13.655Z,30.03
2019-01-27T02:28:44.286Z,31.20
2019-01-27T02:31:15.006Z,26.80
2019-01-27T02:33:46.672Z,29.67
2019-01-27T02:36:17.297Z,30.43
2019-01-27T02:38:47.808Z,29.00
2019-01-27T02:41:18.631Z,31.27
2019-01-27T02:43:49.327Z,30.57
2019-01-27T02:46:19.889Z,29.40
2019-01-27T02:48:50.463Z,24.23
2019-01-27T02:51:20.771Z,29.10
2019-01-27T02:53:51.775Z,34.23
2019-01-27T02:56:23.051Z,30.63
2019-01-27T02:58:54.018Z,30.90
2019-01-27T03:01:24.631Z,26.30
2019-01-27T03:03:55.331Z,30.80
2019-01-27T03:06:51.217Z,24.07
2019-01-27T03:09:27.016Z,28.13
2019-01-27T03:11:57.509Z,25.20
2019-01-27T03:14:29.051Z,25.63
2019-01-27T03:17:00.104Z,22.53
2019-01-27T03:19:31.911Z,24.83
2019-01-27T03:22:02.371Z,24.77
2019-01-27T03:24:33.099Z,23.77
2019-01-27T03:27:03.611Z,26.50
2019-01-27T03:29:33.887Z,23.60
2019-01-27T03:32:04.445Z,27.33
2019-01-27T03:34:34.975Z,21.60
2019-01-27T03:37:05.731Z,19.90
2019-01-27T03:39:36.470Z,25.77
2019-01-27T03:42:08.536Z,25.70
2019-01-27T03:44:39.810Z,22.07
2019-01-27T03:47:10.848Z,27.27
2019-01-27T03:49:46.940Z,25.93
2019-01-27T03:52:17.855Z,21.20
2019-01-27T03:54:51.783Z,25.00
2019-01-27T03:57:22.049Z,20.67
2019-01-27T03:59:52.670Z,22.13
2019-01-27T04:02:23.327Z,16.83
2019-01-27T04:04:54.103Z,16.73
2019-01-27T04:07:24.967Z,17.30
2019-01-27T04:09:55.973Z,21.03
2019-01-27T04:12:27.508Z,19.70
2019-01-27T04:14:58.296Z,20.67
2019-01-27T04:17:29.183Z,19.63
2019-01-27T04:20:00.304Z,18.30
2019-01-27T04:22:31.823Z,23.50
2019-01-27T04:25:02.220Z,18.17
2019-01-27T04:27:32.890Z,20.17
2019-01-27T04:30:03.327Z,18.30
2019-01-27T04:32:34.764Z,20.70
2019-01-27T04:35:06.741Z,18.90
2019-01-27T04:37:39.276Z,19.00
2019-01-27T04:40:13.568Z,20.03
2019-01-27T04:42:45.244Z,21.73
2019-01-27T04:45:19.292Z,18.80
2019-01-27T04:47:51.230Z,20.33
2019-01-27T04:50:22.437Z,21.87
2019-01-27T04:52:52.950Z,18.77
2019-01-27T04:55:24.096Z,23.87
2019-01-27T04:57:55.663Z,20.73
2019-01-27T05:00:26.959Z,23.50
2019-01-27T05:03:11.497Z,23.07
2019-01-27T05:05:43.461Z,18.70
2019-01-27T05:08:14.866Z,26.40
2019-01-27T05:10:45.774Z,17.43
2019-01-27T05:13:17.168Z,15.10
2019-01-27T05:15:48.293Z,18.60
2019-01-27T05:18:20.052Z,14.60
2019-01-27T05:20:50.784Z,20.97
2019-01-27T05:23:21.896Z,14.20
2019-01-27T05:25:52.391Z,16.63
2019-01-27T05:28:22.931Z,18.63
2019-01-27T05:30:53.551Z,16.10
2019-01-27T05:33:24.260Z,17.17
2019-01-27T05:35:55.197Z,17.00
2019-01-27T05:38:25.926Z,15.50
2019-01-27T05:40:56.941Z,14.70
2019-01-27T05:43:27.558Z,14.43
2019-01-27T05:45:58.211Z,11.90
2019-01-27T05:48:29.017Z,15.80
2019-01-27T05:50:59.746Z,14.10
2019-01-27T05:53:30.255Z,12.50
2019-01-27T05:56:01.048Z,11.90
2019-01-27T05:58:31.490Z,12.80
2019-01-27T06:01:02.879Z,15.43
2019-01-27T06:03:33.615Z,12.70
2019-01-27T06:06:04.635Z,10.60
2019-01-27T06:08:35.654Z,9.57
2019-01-27T06:11:06.140Z,10.73
2019-01-27T06:13:36.697Z,15.27
2019-01-27T06:16:08.571Z,11.03
2019-01-27T06:18:39.237Z,13.17
2019-01-27T06:21:09.579Z,13.00
2019-01-27T06:23:40.932Z,12.40
2019-01-27T06:26:11.786Z,12.77
2019-01-27T06:28:42.460Z,10.07
2019-01-27T06:31:12.945Z,12.40
2019-01-27T06:34:05.079Z,13.40
2019-01-27T06:36:35.520Z,15.07
2019-01-27T06:39:08.279Z,13.60
2019-01-27T06:41:38.746Z,12.50
2019-01-27T06:44:09.871Z,13.67
2019-01-27T06:46:41.045Z,11.03
2019-01-27T06:49:11.751Z,10.73
2019-01-27T06:51:43.292Z,10.60
2019-01-27T06:54:13.894Z,9.47
2019-01-27T06:56:45.099Z,10.10
2019-01-27T06:59:32.955Z,8.73
2019-01-27T07:02:32.335Z,14.57
2019-01-27T07:05:24.368Z,10.10
2019-01-27T07:08:08.218Z,12.13
2019-01-27T07:10:58.098Z,15.23
2019-01-27T07:13:53.818Z,13.53
2019-01-27T07:16:43.519Z,17.97
2019-01-27T07:19:38.982Z,13.43
2019-01-27T07:22:37.419Z,16.23
2019-01-27T07:25:28.312Z,13.83
2019-01-27T07:28:33.027Z,16.27
2019-01-27T07:31:20.444Z,16.87
2019-01-27T07:34:02.666Z,18.20
2019-01-27T07:36:43.249Z,21.70
2019-01-27T07:39:28.490Z,20.17
2019-01-27T07:42:16.523Z,19.73
2019-01-27T07:45:08.761Z,16.47
2019-01-27T07:48:07.968Z,19.00
2019-01-27T07:50:57.557Z,19.17
2019-01-27T07:53:56.452Z,21.00
2019-01-27T07:56:46.760Z,21.90
2019-01-27T07:59:36.112Z,18.07
2019-01-27T08:02:38.072Z,20.30
2019-01-27T08:05:20.777Z,15.87
2019-01-27T08:08:11.451Z,17.23
2019-01-27T08:10:59.420Z,16.63
2019-01-27T08:13:55.866Z,15.93
2019-01-27T08:16:34.351Z,16.97
2019-01-27T08:19:30.310Z,20.70
2019-01-27T08:22:28.768Z,14.00
2019-01-27T08:25:18.347Z,15.43
2019-01-27T08:28:06.451Z,17.03
2019-01-27T08:30:54.930Z,16.13
2019-01-27T08:33:39.382Z,20.93
2019-01-27T08:36:36.492Z,13.33
2019-01-27T08:39:34.488Z,16.47
2019-01-27T08:42:25.033Z,18.57
2019-01-27T08:45:14.912Z,17.83
2019-01-27T08:47:45.741Z,13.90
2019-01-27T08:50:18.289Z,13.40
2019-01-27T08:52:48.987Z,14.30
2019-01-27T08:55:19.244Z,16.17
2019-01-27T08:57:50.209Z,14.27
2019-01-27T09:00:29.585Z,12.80
2019-01-27T09:03:09.338Z,12.37
2019-01-27T09:05:54.712Z,12.20
2019-01-27T09:08:33.129Z,12.70
2019-01-27T09:11:41.423Z,12.07
2019-01-27T09:14:33.747Z,13.87
2019-01-27T09:17:21.740Z,17.17
2019-01-27T09:20:03.257Z,15.13
2019-01-27T09:22:51.491Z,14.50
2019-01-27T09:25:46.802Z,15.30
2019-01-27T09:28:31.904Z,15.70
2019-01-27T09:31:15.074Z,15.00
2019-01-27T09:34:20.565Z,16.90
2019-01-27T09:37:10.015Z,18.00
2019-01-27T09:40:14.809Z,17.60
2019-01-27T09:43:03.165Z,19.83
2019-01-27T09:46:05.282Z,19.17
2019-01-27T09:48:49.948Z,18.33
2019-01-27T09:51:31.875Z,20.20
2019-01-27T09:54:14.593Z,19.20
2019-01-27T09:57:08.178Z,19.13
2019-01-27T09:59:46.703Z,17.40
2019-01-27T10:02:34.835Z,20.97
2019-01-27T10:05:20.337Z,18.87
2019-01-27T10:08:12.983Z,18.27
2019-01-27T10:11:08.500Z,18.43
2019-01-27T10:13:48.137Z,20.93
2019-01-27T10:16:33.942Z,17.73
2019-01-27T10:19:12.414Z,19.47
2019-01-27T10:22:09.015Z,18.77
2019-01-27T10:24:54.041Z,18.20
2019-01-27T10:27:43.565Z,18.83
2019-01-27T10:30:29.838Z,18.80
2019-01-27T10:33:19.727Z,20.40
2019-01-27T10:36:18.215Z,18.37
2019-01-27T10:39:06.422Z,20.03
2019-01-27T10:41:42.948Z,19.37
2019-01-27T10:44:35.790Z,23.60
2019-01-27T10:47:19.217Z,24.23
2019-01-27T10:50:01.311Z,20.70
2019-01-27T10:52:57.304Z,21.53
2019-01-27T10:55:46.549Z,19.00
2019-01-27T10:58:39.220Z,19.50
2019-01-27T11:01:30.968Z,17.77
2019-01-27T11:04:12.103Z,19.07
2019-01-27T11:07:04.409Z,18.37
2019-01-27T11:09:47.850Z,19.87
2019-01-27T11:12:37.050Z,20.43
2019-01-27T11:15:28.482Z,19.60
2019-01-27T11:18:21.144Z,18.00
2019-01-27T11:21:03.194Z,21.23
2019-01-27T11:23:58.340Z,21.77
2019-01-27T11:26:44.888Z,20.87
2019-01-27T11:29:31.764Z,20.17
2019-01-27T11:32:22.263Z,20.27
2019-01-27T11:35:12.724Z,21.80
2019-01-27T11:38:04.294Z,20.40
2019-01-27T11:40:53.496Z,21.47
2019-01-27T11:43:32.953Z,20.53
2019-01-27T11:46:29.590Z,22.27
2019-01-27T11:49:17.650Z,20.77
2019-01-27T11:51:52.745Z,21.80
2019-01-27T11:54:23.943Z,21.23
2019-01-27T11:57:00.415Z,20.80
2019-01-27T11:59:31.300Z,19.30
2019-01-27T12:02:02.491Z,20.40
2019-01-27T12:04:33.634Z,21.17
2019-01-27T12:07:05.420Z,20.23
2019-01-27T12:09:38.103Z,18.97
2019-01-27T12:12:09.499Z,20.07
2019-01-27T12:14:41.042Z,19.67
2019-01-27T12:17:13.101Z,18.83
2019-01-27T12:19:44.476Z,20.70
2019-01-27T12:22:15.711Z,20.00
2019-01-27T12:24:46.551Z,20.70
2019-01-27T12:27:18.011Z,21.17
2019-01-27T12:29:48.954Z,19.03
2019-01-27T12:32:20.213Z,18.37
2019-01-27T12:34:51.698Z,20.00
2019-01-27T12:37:23.003Z,17.90
2019-01-27T12:39:53.762Z,21.10
2019-01-27T12:42:25.745Z,22.57
2019-01-27T12:44:56.823Z,22.00
2019-01-27T12:47:27.903Z,20.03
2019-01-27T12:49:59.074Z,20.43
2019-01-27T12:52:30.607Z,23.60
2019-01-27T12:55:02.175Z,21.23
2019-01-27T12:57:33.361Z,22.40
2019-01-27T13:00:10.169Z,22.90
2019-01-27T13:02:41.170Z,20.93
2019-01-27T13:05:12.133Z,23.97
2019-01-27T13:07:43.315Z,22.07
2019-01-27T13:10:15.574Z,23.07
2019-01-27T13:12:46.505Z,23.13
2019-01-27T13:15:18.408Z,22.23
2019-01-27T13:17:49.782Z,23.70
2019-01-27T13:20:24.816Z,22.53
2019-01-27T13:22:55.922Z,21.00
2019-01-27T13:25:28.871Z,23.43
2019-01-27T13:28:01.857Z,21.63
2019-01-27T13:30:33.287Z,21.50
2019-01-27T13:33:04.074Z,21.97
2019-01-27T13:35:38.818Z,22.17
2019-01-27T13:38:10.464Z,21.63
2019-01-27T13:40:41.815Z,21.87
2019-01-27T13:43:13.019Z,22.53
2019-01-27T13:45:44.941Z,22.30
2019-01-27T13:48:17.000Z,24.53
2019-01-27T13:50:48.684Z,21.80
2019-01-27T13:53:20.132Z,23.53
2019-01-27T13:55:51.423Z,23.13
2019-01-27T13:58:22.126Z,24.03
2019-01-27T14:00:54.190Z,22.80
2019-01-27T14:03:24.913Z,25.27
2019-01-27T14:05:55.705Z,22.13
2019-01-27T14:08:27.224Z,20.30
2019-01-27T14:10:59.523Z,21.63
2019-01-27T14:13:31.974Z,20.27
2019-01-27T14:16:03.341Z,21.80
2019-01-27T14:18:35.072Z,22.03
2019-01-27T14:21:16.535Z,24.53
2019-01-27T14:23:43.218Z,22.90
2019-01-27T14:26:15.635Z,22.97
2019-01-27T14:28:47.066Z,22.83
2019-01-27T14:31:17.936Z,23.77
2019-01-27T14:33:49.043Z,25.20
2019-01-27T14:36:20.835Z,24.43
2019-01-27T14:38:52.058Z,25.27
2019-01-27T14:41:25.611Z,25.93
2019-01-27T14:43:57.825Z,23.80
2019-01-27T14:46:29.340Z,25.13
2019-01-27T14:49:00.894Z,23.50
2019-01-27T14:51:31.914Z,23.03
2019-01-27T14:54:02.836Z,21.90
2019-01-27T14:56:33.717Z,20.83
2019-01-27T14:59:04.784Z,23.80
2019-01-27T15:01:37.657Z,20.33
2019-01-27T15:04:11.672Z,20.17
2019-01-27T15:06:42.385Z,20.93
2019-01-27T15:09:13.406Z,22.10
2019-01-27T15:11:44.261Z,21.70
2019-01-27T15:14:16.272Z,20.33
2019-01-27T15:16:51.885Z,19.70
2019-01-27T15:19:23.823Z,25.10
2019-01-27T15:21:54.905Z,17.77
2019-01-27T15:24:26.219Z,19.90
2019-01-27T15:27:00.086Z,17.23
2019-01-27T15:29:31.881Z,18.10
2019-01-27T15:32:03.017Z,18.17
2019-01-27T15:34:33.988Z,23.30
2019-01-27T15:37:05.786Z,20.40
2019-01-27T15:39:37.729Z,28.00
2019-01-27T15:42:08.714Z,25.43
2019-01-27T15:44:43.586Z,26.03
2019-01-27T15:47:15.920Z,26.27
2019-01-27T15:49:47.123Z,22.23
2019-01-27T15:52:18.337Z,24.80
2019-01-27T15:54:49.893Z,24.20
2019-01-27T15:57:21.428Z,22.30
2019-01-27T16:00:00.529Z,28.03
2019-01-27T16:02:32.083Z,27.17
2019-01-27T16:05:03.533Z,29.17
2019-01-27T16:07:35.817Z,22.47
2019-01-27T16:10:07.743Z,23.47
2019-01-27T16:12:39.562Z,24.70
2019-01-27T16:15:13.386Z,24.03
2019-01-27T16:17:45.740Z,22.93
2019-01-27T16:20:18.377Z,28.23
2019-01-27T16:23:01.095Z,26.60
2019-01-27T16:25:32.648Z,26.80
2019-01-27T16:28:05.293Z,29.20
2019-01-27T16:30:54.616Z,28.00
2019-01-27T16:33:41.392Z,29.27
2019-01-27T16:36:13.261Z,34.43
2019-01-27T16:38:44.856Z,28.00
2019-01-27T16:41:16.704Z,30.90
2019-01-27T16:43:48.964Z,32.17
2019-01-27T16:46:20.362Z,31.30
2019-01-27T16:48:52.681Z,29.00
2019-01-27T16:51:24.314Z,27.40
2019-01-27T16:53:55.702Z,26.90
2019-01-27T16:56:27.128Z,28.60
2019-01-27T16:58:59.514Z,29.87
2019-01-27T17:01:31.645Z,25.33
2019-01-27T17:04:03.314Z,26.90
2019-01-27T17:06:35.253Z,30.10
2019-01-27T17:09:10.450Z,25.63
2019-01-27T17:11:41.807Z,28.10
2019-01-27T17:14:13.530Z,31.13
2019-01-27T17:16:46.041Z,27.23
2019-01-27T17:19:17.690Z,26.40
2019-01-27T17:21:49.184Z,29.10
2019-01-27T17:24:20.587Z,32.90
2019-01-27T17:26:52.053Z,27.40
2019-01-27T17:29:26.226Z,27.10
2019-01-27T17:31:57.447Z,27.00
2019-01-27T17:34:28.813Z,27.80
2019-01-27T17:36:59.670Z,23.93
2019-01-27T17:39:33.015Z,26.87
2019-01-27T17:42:03.977Z,31.93
2019-01-27T17:44:35.966Z,32.30
2019-01-27T17:47:07.284Z,25.60
2019-01-27T17:49:38.560Z,30.80
2019-01-27T17:52:10.575Z,27.50
2019-01-27T17:54:42.309Z,34.50
2019-01-27T17:57:31.894Z,33.33
2019-01-27T18:00:27.892Z,31.03
2019-01-27T18:03:10.222Z,29.77
2019-01-27T18:05:51.392Z,29.50
2019-01-27T18:08:31.897Z,29.40
2019-01-27T18:11:10.872Z,28.60
2019-01-27T18:17:00.007Z,27.70
2019-01-27T18:19:31.118Z,24.97
2019-01-27T18:22:02.458Z,25.03
2019-01-27T18:24:33.893Z,25.77
2019-01-27T18:27:05.938Z,26.40
2019-01-27T18:29:38.059Z,31.97
2019-01-27T18:32:09.616Z,33.63
2019-01-27T18:34:41.530Z,31.43
2019-01-27T18:37:12.867Z,30.33
2019-01-27T18:39:43.743Z,33.13
2019-01-27T18:42:14.959Z,28.43
2019-01-27T18:44:46.793Z,32.73
2019-01-27T18:47:18.230Z,30.60
2019-01-27T18:49:49.308Z,32.03
2019-01-27T18:52:21.703Z,32.63
2019-01-27T18:55:17.009Z,32.57
2019-01-27T18:57:58.815Z,36.90
2019-01-27T19:00:48.687Z,31.60
2019-01-27T19:03:38.415Z,33.33
2019-01-27T19:06:27.525Z,31.87
2019-01-27T19:09:09.026Z,35.50
2019-01-27T19:12:02.542Z,31.40
2019-01-27T19:14:52.963Z,37.87
2019-01-27T19:17:44.170Z,39.00
2019-01-27T19:20:33.522Z,38.60
2019-01-27T19:23:33.671Z,35.97
2019-01-27T19:26:21.711Z,28.97
2019-01-27T19:29:14.698Z,29.30
2019-01-27T19:31:58.088Z,23.67
2019-01-27T19:34:48.291Z,29.70
2019-01-27T19:37:41.999Z,25.63
2019-01-27T19:40:37.823Z,30.13
2019-01-27T19:43:29.975Z,28.30
2019-01-27T19:46:13.277Z,25.13
2019-01-27T19:48:54.522Z,27.40
2019-01-27T19:52:02.970Z,26.63
2019-01-27T19:54:54.960Z,27.43
2019-01-27T19:57:57.339Z,29.87
2019-01-27T20:00:57.660Z,33.93
2019-01-27T20:03:54.619Z,27.10
2019-01-27T20:06:33.538Z,28.20
2019-01-27T20:09:32.495Z,32.70
2019-01-27T20:12:32.855Z,27.50
2019-01-27T20:15:40.578Z,30.30
2019-01-27T20:18:29.615Z,24.63
2019-01-27T20:21:19.094Z,27.97
2019-01-27T20:24:02.343Z,29.07
2019-01-27T20:26:55.511Z,27.67
2019-01-27T20:29:37.951Z,28.23
2019-01-27T20:32:27.113Z,26.37
2019-01-27T20:35:22.893Z,24.83
2019-01-27T20:38:12.728Z,31.80
2019-01-27T20:41:06.015Z,30.30
2019-01-27T20:43:52.006Z,28.43
2019-01-27T20:46:41.517Z,26.47
2019-01-27T20:49:34.435Z,29.93
2019-01-27T20:52:39.798Z,28.23
2019-01-27T20:55:34.575Z,25.70
2019-01-27T20:58:42.957Z,26.00
2019-01-27T21:01:34.116Z,25.97
2019-01-27T21:04:15.374Z,26.20
2019-01-27T21:07:11.801Z,37.10
2019-01-27T21:10:04.353Z,30.83
2019-01-27T21:12:57.542Z,31.87
2019-01-27T21:15:45.677Z,28.33
2019-01-27T21:18:24.915Z,26.20
2019-01-27T21:20:57.119Z,28.90
2019-01-27T21:23:29.342Z,31.33
2019-01-27T21:26:00.784Z,30.67
2019-01-27T21:28:33.177Z,29.23
2019-01-27T21:31:05.356Z,28.30
2019-01-27T21:33:38.228Z,34.43
2019-01-27T21:36:10.255Z,32.30
2019-01-27T21:38:41.034Z,32.50
2019-01-27T21:41:14.429Z,37.47
2019-01-27T21:43:46.431Z,31.93
2019-01-27T21:46:17.612Z,35.07
2019-01-27T21:48:49.500Z,31.67
2019-01-27T21:51:20.926Z,32.20
2019-01-27T21:53:52.694Z,31.90
2019-01-27T21:56:24.352Z,26.80
2019-01-27T21:58:54.869Z,33.00
2019-01-27T22:01:28.692Z,31.62
2019-01-27T22:04:00.171Z,29.10
2019-01-27T22:06:30.636Z,31.00
2019-01-27T22:09:01.533Z,29.17
2019-01-27T22:11:32.328Z,36.27
2019-01-27T22:14:03.741Z,32.50
2019-01-27T22:16:34.148Z,29.87
2019-01-27T22:19:04.895Z,29.40
2019-01-27T22:21:35.356Z,28.83
2019-01-27T22:24:09.425Z,28.80
2019-01-27T22:26:40.228Z,28.43
2019-01-27T22:29:11.082Z,31.03
2019-01-27T22:31:41.852Z,30.50
2019-01-27T22:34:12.296Z,34.30
2019-01-27T22:36:43.017Z,30.20
2019-01-27T22:39:13.380Z,28.70
2019-01-27T22:41:44.544Z,33.83
2019-01-27T22:44:15.050Z,24.73
2019-01-27T22:46:45.564Z,33.83
2019-01-27T22:49:16.167Z,31.57
2019-01-27T22:51:46.807Z,29.03
2019-01-27T22:54:17.643Z,29.37
2019-01-27T22:56:48.233Z,30.57
2019-01-27T22:59:19.913Z,39.20
2019-01-27T23:01:50.723Z,34.50
2019-01-27T23:04:21.970Z,34.93
2019-01-27T23:06:53.463Z,31.60
2019-01-27T23:09:23.858Z,30.03
2019-01-27T23:11:54.026Z,34.90
2019-01-27T23:14:24.706Z,33.50
2019-01-27T23:16:55.764Z,42.47
2019-01-27T23:19:27.930Z,28.10
2019-01-27T23:21:59.916Z,36.73
2019-01-27T23:24:30.766Z,30.40
2019-01-27T23:27:01.629Z,30.70
2019-01-27T23:29:32.548Z,32.30
2019-01-27T23:32:03.100Z,31.20
2019-01-27T23:34:33.658Z,37.30
2019-01-27T23:37:04.043Z,38.30
2019-01-27T23:39:35.302Z,35.07
2019-01-27T23:42:06.214Z,41.33
2019-01-27T23:44:37.758Z,34.20
2019-01-27T23:47:08.763Z,33.83
2019-01-27T23:49:40.143Z,32.63
2019-01-27T23:52:11.549Z,32.30
2019-01-27T23:54:42.051Z,29.70
2019-01-27T23:57:12.855Z,38.30
2019-01-27T23:59:44.454Z,33.33
